Time;durP1;ratioP1;P1;durP2;ratioP2;P2;SDS_P1;SDS_P2;PMS_P1;PMS_P2;Temp;Humidity;BMP_temperature;BMP_pressure;BME280_temperature;BME280_humidity;BME280_pressure;Samples;Min_cycle;Max_cycle;Signal;HPM_P1;HPM_P2
2022/01/22 00:01:28;;;;;;;10.40;2.53;;;7.60;99.90;;;;;;5055006;28;20505;-82
2022/01/22 00:03:53;;;;;;;13.38;1.40;;;8.00;99.90;;;;;;5054813;28;20076;-81
2022/01/22 00:06:19;;;;;;;8.77;1.45;;;6.60;99.90;;;;;;5052232;28;20111;-82
2022/01/22 00:08:45;;;;;;;15.95;1.25;;;6.10;99.90;;;;;;5067187;28;20040;-83
2022/01/22 00:11:10;;;;;;;7.13;0.93;;;6.60;99.90;;;;;;5071921;28;20110;-83
2022/01/22 00:16:21;;;;;;;10.35;0.90;;;7.80;99.90;;;;;;5057874;28;20577;-82
2022/01/22 00:18:46;;;;;;;4.05;0.65;;;7.20;99.90;;;;;;5071894;28;20028;-83
2022/01/22 00:21:12;;;;;;;7.38;0.60;;;7.50;99.90;;;;;;5053334;28;20179;-82
2022/01/22 00:23:40;;;;;;;6.82;0.70;;;7.10;99.90;;;;;;5072095;28;20039;-82
2022/01/22 00:26:06;;;;;;;7.93;0.82;;;7.30;99.90;;;;;;5071798;28;20906;-83
2022/01/22 00:28:31;;;;;;;3.03;0.50;;;8.00;99.90;;;;;;5062074;28;20040;-82
2022/01/22 00:30:57;;;;;;;7.35;0.70;;;7.10;99.90;;;;;;5065380;28;20049;-80
2022/01/22 00:33:23;;;;;;;7.45;0.93;;;8.00;99.90;;;;;;5039830;28;20041;-80
2022/01/22 00:35:49;;;;;;;6.75;1.75;;;7.60;99.90;;;;;;5058694;28;20048;-82
2022/01/22 00:38:15;;;;;;;7.25;0.60;;;7.50;99.90;;;;;;5053527;28;20080;-82
2022/01/22 00:40:41;;;;;;;8.32;0.90;;;7.80;99.90;;;;;;5071923;28;20047;-82
2022/01/22 00:43:07;;;;;;;8.15;0.80;;;7.60;99.90;;;;;;5071333;28;20037;-82
2022/01/22 00:45:32;;;;;;;5.88;0.75;;;7.10;99.90;;;;;;5051102;28;20044;-81
2022/01/22 00:47:58;;;;;;;8.45;0.90;;;7.30;99.90;;;;;;5066903;28;20346;-83
2022/01/22 00:50:24;;;;;;;7.50;0.80;;;8.00;99.90;;;;;;5053672;28;20053;-83
2022/01/22 00:52:51;;;;;;;9.73;0.77;;;7.10;99.90;;;;;;5071761;28;20051;-83
2022/01/22 00:55:16;;;;;;;3.72;0.80;;;7.00;99.90;;;;;;5051895;28;20500;-82
2022/01/22 00:57:43;;;;;;;7.47;1.55;;;7.90;99.90;;;;;;5067153;28;20051;-82
2022/01/22 01:00:14;;;;;;;6.80;0.70;;;7.40;99.90;;;;;;5062176;28;20044;-82
2022/01/22 01:02:41;;;;;;;1.75;0.60;;;7.10;99.90;;;;;;5059942;28;20040;-83
2022/01/22 01:05:10;;;;;;;8.18;0.73;;;7.00;99.90;;;;;;5067872;28;20047;-83
2022/01/22 01:07:36;;;;;;;11.63;2.63;;;7.10;99.90;;;;;;5064057;28;20408;-83
2022/01/22 01:10:03;;;;;;;16.15;1.70;;;7.20;99.90;;;;;;5067355;28;20040;-83
2022/01/22 01:12:28;;;;;;;5.88;0.60;;;7.20;99.90;;;;;;5053402;28;20441;-83
2022/01/22 01:33:52;;;;;;;4.85;0.65;;;7.80;99.90;;;;;;5064442;28;20123;-82
2022/01/22 01:36:18;;;;;;;11.40;1.05;;;7.00;99.90;;;;;;5068052;28;20385;-82
2022/01/22 01:38:50;;;;;;;7.00;0.80;;;7.00;99.90;;;;;;5067430;28;20048;-81
2022/01/22 01:41:37;;;;;;;9.82;0.95;;;6.70;99.90;;;;;;5067576;28;20052;-82
2022/01/22 01:44:03;;;;;;;6.22;0.93;;;7.00;99.90;;;;;;5053722;28;20040;-83
2022/01/22 01:46:32;;;;;;;8.30;1.00;;;7.10;99.90;;;;;;5069866;28;20091;-83
2022/01/22 01:48:58;;;;;;;6.60;0.65;;;7.10;99.90;;;;;;5054271;28;20380;-83
2022/01/22 01:51:27;;;;;;;5.57;0.70;;;7.00;99.90;;;;;;5054585;28;20045;-82
2022/01/22 01:54:04;;;;;;;4.95;0.90;;;7.00;99.90;;;;;;5052320;28;20046;-82
2022/01/22 01:59:15;;;;;;;9.52;1.17;;;6.90;99.90;;;;;;5062886;28;20566;-83
2022/01/22 02:01:41;;;;;;;3.83;0.60;;;6.90;99.90;;;;;;5066803;28;20048;-82
2022/01/22 02:04:10;;;;;;;3.47;0.55;;;6.90;99.90;;;;;;5061804;28;20108;-82
2022/01/22 02:06:36;;;;;;;6.75;0.55;;;6.90;99.90;;;;;;5065479;28;20468;-82
2022/01/22 02:09:06;;;;;;;2.28;0.50;;;7.20;99.90;;;;;;5053327;28;20036;-81
2022/01/22 02:11:32;;;;;;;4.97;0.70;;;6.80;99.90;;;;;;5049086;28;20131;-82
2022/01/22 02:24:59;;;;;;;11.00;1.02;;;6.90;99.90;;;;;;4986293;28;20100;-83
2022/01/22 02:27:25;;;;;;;2.83;0.80;;;7.60;99.90;;;;;;4993156;28;20085;-83
2022/01/22 02:29:51;;;;;;;10.80;1.13;;;7.20;99.90;;;;;;5009314;28;20073;-83
2022/01/22 02:35:02;;;;;;;7.97;0.63;;;7.00;99.90;;;;;;5012966;28;20053;-83
2022/01/22 02:37:34;;;;;;;13.10;0.70;;;6.80;99.90;;;;;;4997185;28;20522;-83
2022/01/22 02:40:06;;;;;;;4.78;1.17;;;7.30;99.90;;;;;;4996822;28;20057;-83
2022/01/22 02:42:34;;;;;;;1.65;0.50;;;6.90;99.90;;;;;;5012694;28;20120;-83
2022/01/22 02:45:06;;;;;;;9.43;1.15;;;7.00;99.90;;;;;;5013310;28;20116;-83
2022/01/22 02:47:32;;;;;;;5.68;0.95;;;6.00;99.90;;;;;;5003915;28;20053;-83
2022/01/22 02:49:58;;;;;;;10.70;0.52;;;7.60;99.90;;;;;;4997040;28;20072;-83
2022/01/22 02:52:24;;;;;;;5.85;1.63;;;7.80;99.90;;;;;;4996726;28;20088;-82
2022/01/22 02:54:50;;;;;;;11.35;0.90;;;7.70;99.90;;;;;;5048675;28;20062;-82
2022/01/22 02:57:16;;;;;;;4.97;0.50;;;7.10;99.90;;;;;;5050031;28;20128;-83
2022/01/22 02:59:42;;;;;;;5.10;0.60;;;7.70;99.90;;;;;;5036844;28;20117;-84
2022/01/22 03:02:12;;;;;;;8.55;0.60;;;6.90;99.90;;;;;;5053514;28;20119;-83
2022/01/22 03:04:38;;;;;;;7.82;0.80;;;6.70;99.90;;;;;;5053632;28;20512;-84
2022/01/22 03:07:05;;;;;;;7.47;0.57;;;6.80;99.90;;;;;;5054286;28;20033;-84
2022/01/22 03:09:38;;;;;;;8.18;0.98;;;7.60;99.90;;;;;;5042480;28;20412;-84
2022/01/22 03:17:50;;;;;;;4.75;0.88;;;7.10;99.90;;;;;;5053851;28;20051;-83
2022/01/22 03:27:59;;;;;;;4.32;0.70;;;7.00;99.90;;;;;;5047048;28;20071;-83
2022/01/22 03:30:25;;;;;;;2.58;0.57;;;7.30;99.90;;;;;;5053075;28;20443;-83
2022/01/22 03:32:53;;;;;;;2.70;0.30;;;7.00;99.90;;;;;;5035552;28;20405;-83
2022/01/22 03:37:58;;;;;;;3.60;0.80;;;6.40;99.90;;;;;;5052735;28;20115;-83
2022/01/22 03:40:29;;;;;;;5.43;0.45;;;6.70;99.90;;;;;;5053745;28;20045;-83
2022/01/22 03:42:55;;;;;;;5.25;1.00;;;6.70;99.90;;;;;;5052926;28;20127;-83
2022/01/22 03:45:22;;;;;;;1.30;0.30;;;7.40;99.90;;;;;;5034703;28;20470;-83
2022/01/22 03:47:48;;;;;;;4.18;0.40;;;6.70;99.90;;;;;;5035094;28;20049;-83
2022/01/22 03:50:15;;;;;;;5.65;0.52;;;7.20;99.90;;;;;;5035645;28;20052;-83
2022/01/22 03:52:41;;;;;;;1.45;0.45;;;6.80;99.90;;;;;;5034845;28;20557;-83
2022/01/22 03:55:14;;;;;;;5.03;1.30;;;7.00;99.90;;;;;;5053365;28;20125;-83
2022/01/22 03:57:41;;;;;;;5.15;0.40;;;6.80;99.90;;;;;;5045080;28;20120;-83
2022/01/22 04:00:08;;;;;;;5.78;0.50;;;7.10;99.90;;;;;;5039279;28;20114;-83
2022/01/22 04:05:18;;;;;;;3.60;0.43;;;7.10;99.90;;;;;;5052772;28;20041;-83
2022/01/22 04:10:13;;;;;;;6.07;0.50;;;6.80;99.90;;;;;;5052504;28;20508;-83
2022/01/22 04:12:51;;;;;;;5.78;0.50;;;6.70;99.90;;;;;;5053157;28;20047;-83
2022/01/22 04:15:21;;;;;;;5.28;0.30;;;7.50;99.90;;;;;;5052187;28;20044;-83
2022/01/22 04:26:10;;;;;;;4.97;0.40;;;6.00;99.90;;;;;;5052551;28;20096;-82
2022/01/22 04:28:36;;;;;;;2.38;0.38;;;7.50;99.90;;;;;;5052344;28;20091;-83
2022/01/22 04:31:01;;;;;;;4.45;0.40;;;7.30;99.90;;;;;;5034405;28;20045;-83
2022/01/22 04:33:27;;;;;;;2.38;0.20;;;6.90;99.90;;;;;;5055032;28;20059;-82
2022/01/22 04:35:53;;;;;;;4.53;0.40;;;6.50;99.90;;;;;;5059134;28;20040;-83
2022/01/22 04:38:18;;;;;;;7.60;0.60;;;6.50;99.90;;;;;;5064185;28;20057;-83
2022/01/22 04:40:44;;;;;;;11.73;1.08;;;6.60;99.90;;;;;;5061997;28;20175;-82
2022/01/22 04:43:11;;;;;;;4.05;0.55;;;7.00;99.90;;;;;;5057084;28;20401;-81
2022/01/22 04:55:53;;;;;;;5.65;0.60;;;6.10;99.90;;;;;;5062047;28;20049;-83
2022/01/22 04:58:19;;;;;;;7.78;0.70;;;7.50;99.90;;;;;;5063666;28;20079;-83
2022/01/22 05:00:45;;;;;;;5.00;0.50;;;7.20;99.90;;;;;;5020643;28;20052;-83
2022/01/22 05:03:12;;;;;;;6.22;0.55;;;6.50;99.90;;;;;;5059704;28;20067;-83
2022/01/22 05:05:37;;;;;;;4.03;0.85;;;6.80;99.90;;;;;;5042550;28;20418;-82
2022/01/22 05:08:03;;;;;;;1.02;0.40;;;6.90;99.90;;;;;;5044095;28;20139;-82
2022/01/22 05:10:29;;;;;;;7.28;0.50;;;6.60;99.90;;;;;;5058133;28;20049;-82
2022/01/22 05:12:55;;;;;;;2.67;0.40;;;6.00;99.90;;;;;;5059802;28;20370;-82
2022/01/22 05:15:21;;;;;;;6.00;1.13;;;7.00;99.90;;;;;;5045315;28;20104;-83
2022/01/22 05:17:47;;;;;;;2.83;0.70;;;6.40;99.90;;;;;;5060496;28;20066;-82
2022/01/22 05:20:28;;;;;;;4.80;0.57;;;7.50;99.90;;;;;;5042649;28;20040;-83
2022/01/22 05:25:44;;;;;;;8.40;0.60;;;6.50;99.90;;;;;;5061738;28;20417;-82
2022/01/22 05:31:03;;;;;;;4.38;0.63;;;6.80;99.90;;;;;;5058677;28;20041;-81
2022/01/22 05:38:58;;;;;;;3.13;0.40;;;6.60;99.90;;;;;;5048786;28;20032;-81
2022/01/22 05:41:23;;;;;;;4.15;0.52;;;6.80;99.90;;;;;;5060338;28;20416;-81
2022/01/22 05:43:49;;;;;;;3.15;0.50;;;7.40;99.90;;;;;;5055374;28;20044;-82
2022/01/22 05:46:15;;;;;;;5.15;0.47;;;7.30;99.90;;;;;;5060966;28;20044;-81
2022/01/22 05:48:41;;;;;;;3.80;0.47;;;6.50;99.90;;;;;;5064259;28;20127;-81
2022/01/22 05:51:07;;;;;;;3.03;0.50;;;7.60;99.90;;;;;;5061987;28;20059;-82
2022/01/22 06:01:20;;;;;;;12.93;1.60;;;7.50;99.90;;;;;;5062859;28;20047;-82
2022/01/22 06:03:47;;;;;;;7.28;0.68;;;6.80;99.90;;;;;;5070509;28;20032;-83
2022/01/22 06:06:13;;;;;;;6.82;0.70;;;7.20;99.90;;;;;;5046843;28;20431;-83
2022/01/22 06:08:41;;;;;;;6.07;1.02;;;7.20;99.90;;;;;;5074467;28;20040;-83
2022/01/22 06:11:10;;;;;;;7.47;0.80;;;6.30;99.90;;;;;;5073566;28;20045;-83
2022/01/22 06:13:44;;;;;;;3.70;0.73;;;6.50;99.90;;;;;;5074389;28;20036;-83
2022/01/22 06:16:11;;;;;;;6.47;1.48;;;6.80;99.90;;;;;;5050670;28;20546;-84
2022/01/22 06:18:37;;;;;;;7.38;0.80;;;6.80;99.90;;;;;;5069978;28;20037;-83
2022/01/22 06:21:04;;;;;;;13.07;2.25;;;6.80;99.90;;;;;;5062383;28;20485;-83
2022/01/22 06:23:29;;;;;;;8.38;0.80;;;7.40;99.90;;;;;;5061553;28;20465;-83
2022/01/22 06:25:58;;;;;;;5.65;0.93;;;7.50;99.90;;;;;;5064319;28;20041;-83
2022/01/22 06:28:24;;;;;;;4.90;0.50;;;6.60;99.90;;;;;;5066236;28;20048;-84
2022/01/22 06:30:49;;;;;;;9.93;0.75;;;7.20;99.90;;;;;;5061913;28;20098;-84
2022/01/22 06:33:15;;;;;;;4.40;0.60;;;6.80;99.90;;;;;;5065038;28;20051;-83
2022/01/22 06:35:41;;;;;;;2.15;0.40;;;6.80;99.90;;;;;;5040948;28;20052;-84
2022/01/22 06:38:08;;;;;;;4.78;0.60;;;7.20;99.90;;;;;;5039799;28;20087;-83
2022/01/22 06:43:03;;;;;;;5.13;0.80;;;7.30;99.90;;;;;;5056814;28;20183;-83
2022/01/22 06:45:29;;;;;;;6.15;1.52;;;6.70;99.90;;;;;;5061948;28;20048;-83
2022/01/22 06:47:55;;;;;;;8.57;0.90;;;6.70;99.90;;;;;;5070309;28;20077;-84
2022/01/22 06:50:21;;;;;;;4.60;0.55;;;5.70;99.90;;;;;;5064069;28;20045;-84
2022/01/22 06:52:53;;;;;;;3.88;0.50;;;7.40;99.90;;;;;;5067016;28;20045;-84
2022/01/22 06:55:20;;;;;;;1.77;0.40;;;6.60;99.90;;;;;;5066869;28;20044;-82
2022/01/22 06:57:45;;;;;;;3.80;1.00;;;7.50;99.90;;;;;;5052349;28;20060;-84
2022/01/22 07:00:12;;;;;;;6.00;1.25;;;6.50;99.90;;;;;;5068127;28;20041;-83
2022/01/22 07:02:37;;;;;;;5.25;1.50;;;6.70;99.90;;;;;;5069887;28;20044;-83
2022/01/22 07:05:03;;;;;;;7.82;1.58;;;6.90;99.90;;;;;;5051719;28;20102;-82
2022/01/22 07:07:29;;;;;;;7.53;0.80;;;6.60;99.90;;;;;;5062837;28;20072;-83
2022/01/22 07:09:54;;;;;;;7.93;1.15;;;7.10;99.90;;;;;;5043984;28;20040;-83
2022/01/22 07:12:20;;;;;;;3.85;1.20;;;7.30;99.90;;;;;;5055902;28;20111;-83
2022/01/22 07:14:49;;;;;;;8.15;2.13;;;6.50;99.90;;;;;;5047842;28;20454;-83
2022/01/22 07:17:15;;;;;;;2.00;0.70;;;6.50;99.90;;;;;;5071436;28;20496;-82
2022/01/22 07:19:42;;;;;;;5.20;0.63;;;6.50;99.90;;;;;;5064042;28;20045;-83
2022/01/22 07:22:32;;;;;;;3.75;0.60;;;6.40;99.90;;;;;;5059483;28;20032;-83
2022/01/22 07:24:53;;;;;;;6.70;0.77;;;7.20;99.90;;;;;;5054288;28;20044;-84
2022/01/22 07:27:18;;;;;;;3.90;0.50;;;6.40;99.90;;;;;;5041699;28;20044;-83
2022/01/22 07:29:44;;;;;;;3.65;0.60;;;6.40;99.90;;;;;;5067194;28;20086;-87
2022/01/22 07:32:17;;;;;;;4.07;0.80;;;6.40;99.90;;;;;;5059867;28;20123;-84
2022/01/22 07:34:43;;;;;;;3.55;0.40;;;6.90;99.90;;;;;;5001684;28;1228406;-84
2022/01/22 07:37:09;;;;;;;2.38;0.50;;;6.50;99.90;;;;;;5073847;28;20048;-84
2022/01/22 07:39:34;;;;;;;2.85;0.57;;;5.50;99.90;;;;;;5038744;28;21573;-81
2022/01/22 07:42:00;;;;;;;4.93;0.60;;;7.20;99.90;;;;;;5056021;28;20047;-82
2022/01/22 07:44:25;;;;;;;5.53;0.40;;;7.20;99.90;;;;;;5055572;28;20044;-81
2022/01/22 07:46:51;;;;;;;1.65;0.55;;;6.50;99.90;;;;;;5055906;28;20118;-83
2022/01/22 07:49:19;;;;;;;1.90;0.47;;;7.10;99.90;;;;;;5073918;28;20045;-82
2022/01/22 07:51:45;;;;;;;1.30;0.50;;;7.10;99.90;;;;;;5056205;28;20475;-82
2022/01/22 07:54:10;;;;;;;3.85;0.40;;;6.80;99.90;;;;;;5081638;28;20132;-83
2022/01/22 07:56:36;;;;;;;2.45;0.40;;;6.30;99.90;;;;;;5062021;28;20127;-81
2022/01/22 07:59:02;;;;;;;3.30;0.50;;;7.30;99.90;;;;;;5073610;28;20043;-81
2022/01/22 08:01:27;;;;;;;4.53;0.63;;;7.20;99.90;;;;;;5072387;28;20043;-83
2022/01/22 08:03:53;;;;;;;4.45;0.52;;;6.80;99.90;;;;;;5073309;28;20037;-84
2022/01/22 08:06:19;;;;;;;1.30;0.45;;;7.20;99.90;;;;;;5073521;28;20045;-85
2022/01/22 08:08:45;;;;;;;5.25;0.60;;;6.90;99.90;;;;;;5055686;28;20120;-82
2022/01/22 08:11:10;;;;;;;3.30;0.57;;;7.10;99.90;;;;;;5055608;28;20464;-84
2022/01/22 08:13:36;;;;;;;4.55;0.57;;;6.50;99.90;;;;;;5079015;28;20172;-80
2022/01/22 08:16:02;;;;;;;2.72;0.50;;;7.20;99.90;;;;;;5074137;28;20044;-82
2022/01/22 08:18:28;;;;;;;6.72;0.73;;;6.40;99.90;;;;;;5070270;28;20115;-83
2022/01/22 08:20:53;;;;;;;8.10;1.23;;;6.80;99.90;;;;;;5072533;28;20036;-83
2022/01/22 08:23:20;;;;;;;0.80;0.40;;;7.40;99.90;;;;;;5073214;28;20048;-83
2022/01/22 08:25:48;;;;;;;2.15;0.57;;;6.40;99.90;;;;;;5072770;28;20052;-84
2022/01/22 08:31:03;;;;;;;5.25;0.47;;;6.50;99.90;;;;;;5054086;28;20055;-85
2022/01/22 08:35:52;;;;;;;3.30;0.80;;;7.40;99.90;;;;;;5054413;28;20045;-83
2022/01/22 08:36:17;;;;;;;4.28;0.50;;;7.10;99.90;;;;;;5072453;28;20051;-83
2022/01/22 08:38:43;;;;;;;2.67;0.65;;;6.50;99.90;;;;;;5072522;28;20474;-83
2022/01/22 08:41:09;;;;;;;1.83;0.20;;;7.00;99.90;;;;;;5071807;28;20044;-84
2022/01/22 08:43:35;;;;;;;5.32;0.50;;;7.30;99.90;;;;;;5072560;28;20365;-83
2022/01/22 08:46:02;;;;;;;4.22;0.40;;;7.40;99.90;;;;;;5076325;28;20079;-84
2022/01/22 08:48:28;;;;;;;1.02;0.20;;;6.80;99.90;;;;;;5068028;28;20044;-81
2022/01/22 08:50:54;;;;;;;2.47;0.13;;;6.60;99.90;;;;;;5072839;28;20044;-83
2022/01/22 08:53:20;;;;;;;1.55;0.40;;;6.70;99.90;;;;;;5073350;28;20045;-83
2022/01/22 08:55:46;;;;;;;2.85;0.20;;;7.20;99.90;;;;;;5078692;28;20051;-82
2022/01/22 08:58:13;;;;;;;0.95;0.20;;;7.10;99.90;;;;;;5071396;28;20044;-83
2022/01/22 09:00:39;;;;;;;7.53;0.38;;;5.70;99.90;;;;;;5065450;28;20523;-82
2022/01/22 09:03:06;;;;;;;6.32;0.30;;;7.20;99.90;;;;;;5068902;28;20052;-81
2022/01/22 09:05:35;;;;;;;0.93;0.20;;;6.60;99.90;;;;;;5053410;28;20452;-81
2022/01/22 09:08:02;;;;;;;0.65;0.20;;;7.30;99.90;;;;;;5069227;28;20059;-83
2022/01/22 09:10:28;;;;;;;2.65;0.30;;;6.90;99.90;;;;;;5071431;28;20037;-82
2022/01/22 09:12:54;;;;;;;4.63;0.30;;;7.00;99.90;;;;;;5054003;28;20548;-81
2022/01/22 09:15:19;;;;;;;3.45;0.20;;;7.40;99.90;;;;;;5053868;28;20056;-81
2022/01/22 09:17:48;;;;;;;2.42;0.20;;;6.70;99.90;;;;;;5054614;28;20072;-81
2022/01/22 09:20:30;;;;;;;1.38;0.20;;;6.70;99.90;;;;;;5051980;28;20037;-81
2022/01/22 09:22:56;;;;;;;0.68;0.20;;;6.50;99.90;;;;;;5064596;28;20040;-82
2022/01/22 09:25:21;;;;;;;0.95;0.20;;;7.10;99.90;;;;;;5071872;28;20060;-82
2022/01/22 09:27:47;;;;;;;1.23;0.13;;;6.60;99.90;;;;;;5070979;28;20087;-81
2022/01/22 09:30:13;;;;;;;3.50;0.30;;;6.60;99.90;;;;;;5072086;28;20097;-82
2022/01/22 09:32:38;;;;;;;2.17;0.20;;;6.70;99.90;;;;;;5070313;28;20131;-84
2022/01/22 09:35:04;;;;;;;2.05;0.30;;;7.90;99.90;;;;;;5077908;28;20136;-82
2022/01/22 09:37:31;;;;;;;2.97;0.55;;;6.60;99.90;;;;;;5062693;28;20041;-85
2022/01/22 09:39:57;;;;;;;1.40;0.40;;;6.60;99.90;;;;;;5049821;28;20040;-82
2022/01/22 09:42:23;;;;;;;5.05;0.57;;;7.10;99.90;;;;;;5071202;28;20060;-83
2022/01/22 09:44:49;;;;;;;2.72;0.30;;;6.90;99.90;;;;;;5065726;28;20036;-83
2022/01/22 09:47:19;;;;;;;5.05;1.08;;;7.00;99.90;;;;;;5075458;28;20055;-82
2022/01/22 09:49:45;;;;;;;2.88;0.40;;;7.60;99.90;;;;;;5063450;28;20046;-83
2022/01/22 09:52:11;;;;;;;0.98;0.30;;;8.20;99.90;;;;;;5056549;28;20404;-84
2022/01/22 09:54:37;;;;;;;1.70;0.43;;;6.80;99.90;;;;;;5051379;28;20115;-83
2022/01/22 09:57:04;;;;;;;2.38;0.60;;;7.10;99.90;;;;;;5056097;28;20266;-83
2022/01/22 09:59:31;;;;;;;0.47;0.30;;;6.90;99.90;;;;;;5074782;28;20463;-84
2022/01/22 10:02:10;;;;;;;5.10;0.40;;;7.30;99.90;;;;;;5063422;28;20044;-83
2022/01/22 10:04:37;;;;;;;1.75;0.30;;;6.90;99.90;;;;;;5064227;28;20123;-83
2022/01/22 10:07:04;;;;;;;4.15;0.40;;;7.90;99.90;;;;;;5074320;28;20041;-83
2022/01/22 10:09:46;;;;;;;1.17;0.30;;;7.20;99.90;;;;;;5053988;28;20375;-83
2022/01/22 10:12:19;;;;;;;3.20;0.43;;;5.70;99.90;;;;;;5054784;28;20041;-83
2022/01/22 10:15:03;;;;;;;3.25;0.40;;;7.10;99.90;;;;;;5066202;28;20044;-83
2022/01/22 10:17:48;;;;;;;4.75;0.50;;;7.70;99.90;;;;;;5075740;28;20451;-84
2022/01/22 10:20:29;;;;;;;2.97;0.32;;;7.90;99.90;;;;;;5074669;28;20052;-84
2022/01/22 10:23:03;;;;;;;3.38;0.38;;;7.40;99.90;;;;;;5057464;28;20401;-84
2022/01/22 10:25:36;;;;;;;1.42;0.30;;;6.90;99.90;;;;;;5057853;28;20139;-84
2022/01/22 10:28:10;;;;;;;3.10;0.30;;;7.00;99.90;;;;;;5074416;28;20128;-86
2022/01/22 10:30:42;;;;;;;2.42;0.40;;;6.90;99.90;;;;;;5057883;28;20052;-85
2022/01/22 10:33:33;;;;;;;2.22;0.32;;;7.20;99.90;;;;;;5070663;28;20115;-82
2022/01/22 10:36:19;;;;;;;2.75;0.40;;;7.10;99.90;;;;;;5039704;28;20060;-83
2022/01/22 10:38:53;;;;;;;1.42;0.47;;;7.00;99.90;;;;;;5057403;28;20110;-81
2022/01/22 10:41:42;;;;;;;2.55;0.40;;;6.90;99.90;;;;;;5057829;28;20037;-82
2022/01/22 10:44:15;;;;;;;1.10;0.40;;;7.30;99.90;;;;;;5074832;28;20047;-83
2022/01/22 10:47:03;;;;;;;2.05;0.85;;;6.90;99.90;;;;;;5075308;28;20056;-83
2022/01/22 10:49:29;;;;;;;2.42;0.40;;;7.20;99.90;;;;;;5074186;28;20044;-82
2022/01/22 10:52:00;;;;;;;0.95;0.43;;;6.70;99.90;;;;;;5074867;28;20048;-84
2022/01/22 10:54:31;;;;;;;1.58;0.40;;;7.50;99.90;;;;;;5074580;28;20044;-83
2022/01/22 10:57:12;;;;;;;1.42;0.30;;;7.50;99.90;;;;;;5075296;28;20044;-84
2022/01/22 10:59:47;;;;;;;1.55;0.40;;;6.90;99.90;;;;;;5075027;28;20068;-84
2022/01/22 11:02:14;;;;;;;0.60;0.40;;;6.90;99.90;;;;;;5075009;28;20115;-84
2022/01/22 11:04:42;;;;;;;3.60;0.65;;;6.90;99.90;;;;;;5074389;28;20044;-84
2022/01/22 11:07:14;;;;;;;1.65;0.52;;;7.50;99.90;;;;;;5074669;28;20110;-83
2022/01/22 11:09:40;;;;;;;2.13;0.57;;;7.00;99.90;;;;;;5056806;28;20506;-83
2022/01/22 11:12:06;;;;;;;3.22;0.60;;;7.10;99.90;;;;;;5074917;28;20074;-85
2022/01/22 11:14:35;;;;;;;4.03;0.50;;;7.00;99.90;;;;;;5056546;28;20076;-84
2022/01/22 11:17:02;;;;;;;3.50;0.52;;;7.50;99.90;;;;;;5075037;28;20048;-83
2022/01/22 11:19:33;;;;;;;2.53;0.80;;;6.90;99.90;;;;;;5074175;28;20041;-83
2022/01/22 11:22:10;;;;;;;3.45;0.60;;;7.70;99.90;;;;;;5056636;28;20504;-84
2022/01/22 11:24:42;;;;;;;2.22;0.52;;;6.90;99.90;;;;;;5072482;28;20052;-84
2022/01/22 11:27:10;;;;;;;2.65;0.65;;;7.00;99.90;;;;;;5060091;28;20036;-84
2022/01/22 11:30:11;;;;;;;0.90;0.30;;;7.20;99.90;;;;;;5074630;28;20492;-89
2022/01/22 11:32:57;;;;;;;1.25;0.45;;;6.90;99.90;;;;;;5056862;28;20048;-83
2022/01/22 11:35:37;;;;;;;2.22;0.60;;;6.90;99.90;;;;;;5073108;28;20060;-86
2022/01/22 11:38:09;;;;;;;4.45;0.60;;;6.60;99.90;;;;;;5074180;28;20097;-83
2022/01/22 11:40:35;;;;;;;4.90;0.70;;;7.30;99.90;;;;;;5073029;28;20052;-84
2022/01/22 11:43:09;;;;;;;4.78;0.55;;;6.80;99.90;;;;;;5048937;28;20053;-84
2022/01/22 11:45:50;;;;;;;6.22;1.00;;;7.50;99.90;;;;;;5044829;28;20123;-89
2022/01/22 11:48:18;;;;;;;2.03;0.50;;;6.90;99.90;;;;;;5071528;28;20072;-84
2022/01/22 11:50:47;;;;;;;3.47;0.50;;;7.20;99.90;;;;;;5069169;28;20036;-86
2022/01/22 11:53:33;;;;;;;2.65;0.57;;;6.90;99.90;;;;;;5068614;28;20040;-85
2022/01/22 11:56:07;;;;;;;1.15;0.68;;;6.90;99.90;;;;;;5050823;28;20143;-82
2022/01/22 11:58:54;;;;;;;2.37;0.43;;;7.60;99.90;;;;;;5056234;28;20055;-83
2022/01/22 12:01:38;;;;;;;2.83;0.40;;;7.30;99.90;;;;;;5049351;28;20343;-83
2022/01/22 12:04:06;;;;;;;4.43;0.65;;;6.70;99.90;;;;;;5063793;28;20139;-84
2022/01/22 12:06:31;;;;;;;3.20;0.85;;;5.40;99.90;;;;;;5052604;28;20420;-82
2022/01/22 12:09:14;;;;;;;3.42;0.47;;;7.30;99.90;;;;;;5065223;28;20041;-83
2022/01/22 12:14:49;;;;;;;0.95;0.40;;;7.30;99.90;;;;;;5067299;28;20447;-83
2022/01/22 12:17:28;;;;;;;2.88;0.50;;;7.00;99.90;;;;;;5072088;28;20511;-85
2022/01/22 12:22:47;;;;;;;4.30;0.60;;;7.40;99.90;;;;;;5071364;28;20493;-83
2022/01/22 12:25:15;;;;;;;4.82;0.70;;;7.10;99.90;;;;;;5071198;28;20084;-84
2022/01/22 12:27:52;;;;;;;0.60;0.30;;;7.00;99.90;;;;;;5053261;28;20159;-83
2022/01/22 12:30:45;;;;;;;1.90;0.60;;;7.10;99.90;;;;;;5054048;28;20033;-82
2022/01/22 12:33:15;;;;;;;4.05;1.55;;;7.10;99.90;;;;;;5045734;28;20090;-82
2022/01/22 12:35:44;;;;;;;4.28;1.52;;;7.60;99.90;;;;;;5050957;28;20063;-82
2022/01/22 12:44:07;;;;;;;4.20;0.95;;;7.30;99.90;;;;;;4989402;28;20050;-82
2022/01/22 12:46:34;;;;;;;2.72;0.93;;;7.30;99.90;;;;;;4972318;28;20483;-84
2022/01/22 12:49:03;;;;;;;4.30;0.80;;;7.30;99.90;;;;;;4989508;28;20503;-82
2022/01/22 12:51:30;;;;;;;6.90;1.02;;;7.10;99.90;;;;;;4956601;28;20088;-83
2022/01/22 12:53:56;;;;;;;3.92;1.13;;;7.00;99.90;;;;;;4973994;28;20050;-83
2022/01/22 12:59:11;;;;;;;3.67;1.30;;;7.30;99.90;;;;;;4986999;28;20125;-83
2022/01/22 13:01:44;;;;;;;2.88;1.05;;;7.10;99.90;;;;;;4987014;28;20562;-83
2022/01/22 13:04:09;;;;;;;7.82;1.75;;;7.30;99.90;;;;;;4989320;28;20085;-83
2022/01/22 13:06:48;;;;;;;3.95;1.00;;;7.10;99.90;;;;;;4982831;28;20042;-83
2022/01/22 13:09:14;;;;;;;3.60;0.98;;;7.00;99.90;;;;;;4989029;28;20093;-83
2022/01/22 13:11:49;;;;;;;6.78;1.90;;;7.50;99.90;;;;;;4989622;28;20057;-84
2022/01/22 13:14:28;;;;;;;9.73;1.95;;;7.10;99.90;;;;;;4972377;28;20080;-83
2022/01/22 13:16:55;;;;;;;13.52;2.33;;;7.10;99.90;;;;;;5001122;28;20490;-84
2022/01/22 13:19:22;;;;;;;6.80;1.88;;;8.10;99.90;;;;;;5042991;28;20576;-83
2022/01/22 13:21:54;;;;;;;5.97;2.05;;;7.80;99.90;;;;;;5044407;28;20041;-85
2022/01/22 13:24:23;;;;;;;5.55;2.00;;;7.20;99.90;;;;;;5051930;28;20556;-84
2022/01/22 13:27:03;;;;;;;4.60;1.27;;;7.30;99.90;;;;;;5052628;28;20075;-84
2022/01/22 13:29:53;;;;;;;6.63;1.50;;;7.90;99.90;;;;;;5052896;28;20507;-83
2022/01/22 13:34:57;;;;;;;4.90;1.27;;;7.90;99.90;;;;;;5052904;28;20095;-84
2022/01/22 13:48:31;;;;;;;9.70;1.65;;;7.10;99.90;;;;;;5060956;28;20037;-83
2022/01/22 13:50:58;;;;;;;5.40;1.30;;;7.20;99.90;;;;;;5034020;28;20516;-84
2022/01/22 13:53:25;;;;;;;5.65;1.27;;;7.90;99.90;;;;;;5061147;28;20041;-84
2022/01/22 13:56:05;;;;;;;7.28;0.90;;;8.10;99.90;;;;;;5051994;28;20427;-84
2022/01/22 13:58:31;;;;;;;3.72;0.90;;;7.30;99.90;;;;;;5069107;28;20091;-84
2022/01/22 14:01:04;;;;;;;5.32;2.35;;;8.00;99.90;;;;;;5068865;28;20040;-84
2022/01/22 14:03:37;;;;;;;6.80;1.33;;;7.40;99.90;;;;;;5051910;28;20037;-83
2022/01/22 14:06:06;;;;;;;7.18;1.10;;;7.00;99.90;;;;;;5050288;28;20048;-84
2022/01/22 14:08:34;;;;;;;3.90;0.70;;;7.10;99.90;;;;;;5061341;28;20041;-84
2022/01/22 14:11:11;;;;;;;6.15;1.52;;;7.40;99.90;;;;;;5060332;28;20392;-83
2022/01/22 14:13:39;;;;;;;4.93;1.20;;;6.90;99.90;;;;;;5034615;28;20084;-87
2022/01/22 14:16:19;;;;;;;5.57;1.23;;;7.00;99.90;;;;;;5051220;28;20056;-84
2022/01/22 14:18:46;;;;;;;6.38;0.80;;;7.40;99.90;;;;;;5049166;28;20052;-85
2022/01/22 14:21:18;;;;;;;6.82;0.60;;;6.90;99.90;;;;;;5064397;28;20052;-84
2022/01/22 14:23:52;;;;;;;12.95;1.25;;;6.90;99.90;;;;;;5052143;28;20067;-88
2022/01/22 14:26:24;;;;;;;3.60;0.50;;;7.10;99.90;;;;;;5069527;28;20044;-85
2022/01/22 14:28:55;;;;;;;3.97;0.63;;;7.30;99.90;;;;;;5055438;28;20059;-83
2022/01/22 14:31:39;;;;;;;2.30;0.60;;;6.80;99.90;;;;;;5056282;28;20113;-84
2022/01/22 14:34:06;;;;;;;5.43;1.02;;;6.80;99.90;;;;;;5055192;28;20202;-84
2022/01/22 14:36:49;;;;;;;6.25;0.60;;;7.60;99.90;;;;;;5073846;28;21619;-84
2022/01/22 14:44:38;;;;;;;3.25;0.45;;;6.90;99.90;;;;;;5073822;28;20140;-86
2022/01/22 14:47:11;;;;;;;1.67;0.40;;;7.30;99.90;;;;;;5054680;28;20040;-83
2022/01/22 14:49:46;;;;;;;4.05;0.70;;;6.80;99.90;;;;;;5055482;28;20052;-85
2022/01/22 14:52:14;;;;;;;4.65;0.68;;;7.00;99.90;;;;;;5071616;28;20484;-85
2022/01/22 14:54:44;;;;;;;2.42;0.50;;;7.60;99.90;;;;;;5054608;28;20068;-84
2022/01/22 14:57:12;;;;;;;4.10;0.73;;;6.80;99.90;;;;;;5054092;28;20040;-84
2022/01/22 14:59:40;;;;;;;1.83;0.43;;;7.10;99.90;;;;;;5072044;28;20073;-83
2022/01/22 15:02:07;;;;;;;4.20;0.60;;;7.30;99.90;;;;;;5068777;28;20052;-84
2022/01/22 15:04:33;;;;;;;6.55;0.68;;;7.10;99.90;;;;;;5070954;28;20094;-84
2022/01/22 15:07:01;;;;;;;1.30;0.20;;;6.80;99.90;;;;;;5055464;28;20500;-82
2022/01/22 15:09:29;;;;;;;4.15;0.32;;;6.90;99.90;;;;;;5048010;28;20053;-83
2022/01/22 15:11:55;;;;;;;1.55;0.50;;;6.50;99.90;;;;;;5073863;28;20068;-85
2022/01/22 15:14:23;;;;;;;4.50;0.50;;;7.30;99.90;;;;;;5055726;28;20445;-84
2022/01/22 15:17:02;;;;;;;1.15;0.47;;;6.50;99.90;;;;;;5070569;28;20048;-87
2022/01/22 15:19:28;;;;;;;3.75;0.73;;;7.10;99.90;;;;;;5070485;28;20036;-85
2022/01/22 15:21:55;;;;;;;3.30;0.35;;;7.30;99.90;;;;;;5072912;28;20045;-85